sensor_id;sensor_type;location;lat;lon;timestamp;temperature;humidity
49829;DHT22;35723;51.194;5.112;2022-10-16T00:01:16;16.10;99.90
49829;DHT22;35723;51.194;5.112;2022-10-16T00:03:43;16.10;99.90
49829;DHT22;35723;51.194;5.112;2022-10-16T00:06:09;16.10;99.90
49829;DHT22;35723;51.194;5.112;2022-10-16T00:08:36;16.10;99.90
49829;DHT22;35723;51.194;5.112;2022-10-16T00:11:07;16.10;99.90
49829;DHT22;35723;51.194;5.112;2022-10-16T00:13:34;16.10;99.90
49829;DHT22;35723;51.194;5.112;2022-10-16T00:16:01;16.20;99.90
49829;DHT22;35723;51.194;5.112;2022-10-16T00:18:28;16.10;99.90
49829;DHT22;35723;51.194;5.112;2022-10-16T00:20:54;16.10;99.90
49829;DHT22;35723;51.194;5.112;2022-10-16T00:23:20;16.10;99.90
49829;DHT22;35723;51.194;5.112;2022-10-16T00:25:57;16.10;99.90
49829;DHT22;35723;51.194;5.112;2022-10-16T00:28:24;16.10;99.90
49829;DHT22;35723;51.194;5.112;2022-10-16T00:30:49;16.00;99.90
49829;DHT22;35723;51.194;5.112;2022-10-16T00:33:15;16.00;99.90
49829;DHT22;35723;51.194;5.112;2022-10-16T00:35:41;16.00;99.90
49829;DHT22;35723;51.194;5.112;2022-10-16T00:38:07;16.10;99.90
49829;DHT22;35723;51.194;5.112;2022-10-16T00:40:32;15.90;99.90
49829;DHT22;35723;51.194;5.112;2022-10-16T00:42:58;16.00;99.90
49829;DHT22;35723;51.194;5.112;2022-10-16T00:45:24;16.00;99.90
49829;DHT22;35723;51.194;5.112;2022-10-16T00:47:51;16.00;99.90
49829;DHT22;35723;51.194;5.112;2022-10-16T00:50:29;16.00;99.90
49829;DHT22;35723;51.194;5.112;2022-10-16T00:52:56;16.00;99.90
49829;DHT22;35723;51.194;5.112;2022-10-16T00:55:23;16.00;99.90
49829;DHT22;35723;51.194;5.112;2022-10-16T00:57:50;16.10;99.90
49829;DHT22;35723;51.194;5.112;2022-10-16T01:00:20;16.00;99.90
49829;DHT22;35723;51.194;5.112;2022-10-16T01:02:55;16.00;99.90
49829;DHT22;35723;51.194;5.112;2022-10-16T01:05:23;16.00;99.90
49829;DHT22;35723;51.194;5.112;2022-10-16T01:08:08;15.90;99.90
49829;DHT22;35723;51.194;5.112;2022-10-16T01:10:40;15.90;99.90
49829;DHT22;35723;51.194;5.112;2022-10-16T01:13:10;15.90;99.90
49829;DHT22;35723;51.194;5.112;2022-10-16T01:18:27;16.00;99.90
49829;DHT22;35723;51.194;5.112;2022-10-16T01:21:05;16.00;99.90
49829;DHT22;35723;51.194;5.112;2022-10-16T01:29:26;15.80;99.90
49829;DHT22;35723;51.194;5.112;2022-10-16T01:32:05;15.80;99.90
49829;DHT22;35723;51.194;5.112;2022-10-16T01:34:37;15.80;99.90
49829;DHT22;35723;51.194;5.112;2022-10-16T01:37:16;15.70;99.90
49829;DHT22;35723;51.194;5.112;2022-10-16T01:39:45;15.80;99.90
49829;DHT22;35723;51.194;5.112;2022-10-16T01:42:20;15.80;99.90
49829;DHT22;35723;51.194;5.112;2022-10-16T01:44:48;15.80;99.90
49829;DHT22;35723;51.194;5.112;2022-10-16T01:47:14;15.70;99.90
49829;DHT22;35723;51.194;5.112;2022-10-16T01:49:41;15.80;99.90
49829;DHT22;35723;51.194;5.112;2022-10-16T01:52:13;15.70;99.90
49829;DHT22;35723;51.194;5.112;2022-10-16T01:54:43;15.70;99.90
49829;DHT22;35723;51.194;5.112;2022-10-16T01:57:11;15.80;99.90
49829;DHT22;35723;51.194;5.112;2022-10-16T01:59:42;15.70;99.90
49829;DHT22;35723;51.194;5.112;2022-10-16T02:02:10;15.70;99.90
49829;DHT22;35723;51.194;5.112;2022-10-16T02:04:41;15.80;99.90
49829;DHT22;35723;51.194;5.112;2022-10-16T02:07:08;15.80;99.90
49829;DHT22;35723;51.194;5.112;2022-10-16T02:09:34;15.70;99.90
49829;DHT22;35723;51.194;5.112;2022-10-16T02:12:09;15.80;99.90
49829;DHT22;35723;51.194;5.112;2022-10-16T02:14:38;15.60;99.90
49829;DHT22;35723;51.194;5.112;2022-10-16T02:17:16;15.70;99.90
49829;DHT22;35723;51.194;5.112;2022-10-16T02:19:43;15.70;99.90
49829;DHT22;35723;51.194;5.112;2022-10-16T02:22:24;15.70;99.90
49829;DHT22;35723;51.194;5.112;2022-10-16T02:25:02;15.60;99.90
49829;DHT22;35723;51.194;5.112;2022-10-16T02:30:06;15.60;99.90
49829;DHT22;35723;51.194;5.112;2022-10-16T02:32:34;15.60;99.90
49829;DHT22;35723;51.194;5.112;2022-10-16T02:35:02;15.60;99.90
49829;DHT22;35723;51.194;5.112;2022-10-16T02:37:29;15.60;99.90
49829;DHT22;35723;51.194;5.112;2022-10-16T02:39:57;15.50;99.90
49829;DHT22;35723;51.194;5.112;2022-10-16T02:42:34;15.50;99.90
49829;DHT22;35723;51.194;5.112;2022-10-16T02:45:00;15.50;99.90
49829;DHT22;35723;51.194;5.112;2022-10-16T02:47:26;15.50;99.90
49829;DHT22;35723;51.194;5.112;2022-10-16T02:49:52;15.50;99.90
49829;DHT22;35723;51.194;5.112;2022-10-16T02:52:17;15.50;99.90
49829;DHT22;35723;51.194;5.112;2022-10-16T02:54:43;15.50;99.90
49829;DHT22;35723;51.194;5.112;2022-10-16T02:57:08;15.50;99.90
49829;DHT22;35723;51.194;5.112;2022-10-16T02:59:34;15.50;99.90
49829;DHT22;35723;51.194;5.112;2022-10-16T03:02:00;15.50;99.90
49829;DHT22;35723;51.194;5.112;2022-10-16T03:04:25;15.40;99.90
49829;DHT22;35723;51.194;5.112;2022-10-16T03:06:51;15.50;99.90
49829;DHT22;35723;51.194;5.112;2022-10-16T03:09:16;15.40;99.90
49829;DHT22;35723;51.194;5.112;2022-10-16T03:11:42;15.40;99.90
49829;DHT22;35723;51.194;5.112;2022-10-16T03:14:08;15.40;99.90
49829;DHT22;35723;51.194;5.112;2022-10-16T03:16:33;15.30;99.90
49829;DHT22;35723;51.194;5.112;2022-10-16T03:18:59;15.30;99.90
49829;DHT22;35723;51.194;5.112;2022-10-16T03:21:24;15.30;99.90
49829;DHT22;35723;51.194;5.112;2022-10-16T03:23:50;15.30;99.90
49829;DHT22;35723;51.194;5.112;2022-10-16T03:26:16;15.30;99.90
49829;DHT22;35723;51.194;5.112;2022-10-16T03:28:41;15.40;99.90
49829;DHT22;35723;51.194;5.112;2022-10-16T03:31:07;15.40;99.90
49829;DHT22;35723;51.194;5.112;2022-10-16T03:33:33;15.50;99.90
49829;DHT22;35723;51.194;5.112;2022-10-16T03:35:59;15.50;99.90
49829;DHT22;35723;51.194;5.112;2022-10-16T03:38:24;15.50;99.90
49829;DHT22;35723;51.194;5.112;2022-10-16T03:40:50;15.40;99.90
49829;DHT22;35723;51.194;5.112;2022-10-16T03:43:15;15.40;99.90
49829;DHT22;35723;51.194;5.112;2022-10-16T03:45:41;15.50;99.90
49829;DHT22;35723;51.194;5.112;2022-10-16T03:48:07;15.40;99.90
49829;DHT22;35723;51.194;5.112;2022-10-16T03:50:32;15.50;99.90
49829;DHT22;35723;51.194;5.112;2022-10-16T03:52:58;15.30;99.90
49829;DHT22;35723;51.194;5.112;2022-10-16T03:55:24;15.40;99.90
49829;DHT22;35723;51.194;5.112;2022-10-16T03:57:49;15.40;99.90
49829;DHT22;35723;51.194;5.112;2022-10-16T04:00:15;15.40;99.90
49829;DHT22;35723;51.194;5.112;2022-10-16T04:02:41;15.40;99.90
49829;DHT22;35723;51.194;5.112;2022-10-16T04:05:07;15.40;99.90
49829;DHT22;35723;51.194;5.112;2022-10-16T04:07:32;15.50;99.90
49829;DHT22;35723;51.194;5.112;2022-10-16T04:09:58;15.40;99.90
49829;DHT22;35723;51.194;5.112;2022-10-16T04:12:25;15.40;99.90
49829;DHT22;35723;51.194;5.112;2022-10-16T04:14:51;15.40;99.90
49829;DHT22;35723;51.194;5.112;2022-10-16T04:17:16;15.40;99.90
49829;DHT22;35723;51.194;5.112;2022-10-16T04:19:42;15.40;99.90
49829;DHT22;35723;51.194;5.112;2022-10-16T04:22:07;15.40;99.90
49829;DHT22;35723;51.194;5.112;2022-10-16T04:24:33;15.40;99.90
49829;DHT22;35723;51.194;5.112;2022-10-16T04:26:59;15.40;99.90
49829;DHT22;35723;51.194;5.112;2022-10-16T04:29:24;15.30;99.90
49829;DHT22;35723;51.194;5.112;2022-10-16T04:31:50;15.30;99.90
49829;DHT22;35723;51.194;5.112;2022-10-16T04:34:15;15.30;99.90
49829;DHT22;35723;51.194;5.112;2022-10-16T04:36:41;15.30;99.90
49829;DHT22;35723;51.194;5.112;2022-10-16T04:39:07;15.40;99.90
49829;DHT22;35723;51.194;5.112;2022-10-16T04:41:33;15.30;99.90
49829;DHT22;35723;51.194;5.112;2022-10-16T04:43:58;15.40;99.90
49829;DHT22;35723;51.194;5.112;2022-10-16T04:46:24;15.30;99.90
49829;DHT22;35723;51.194;5.112;2022-10-16T04:48:49;15.20;99.90
49829;DHT22;35723;51.194;5.112;2022-10-16T04:51:15;15.30;99.90
49829;DHT22;35723;51.194;5.112;2022-10-16T04:53:41;15.30;99.90
49829;DHT22;35723;51.194;5.112;2022-10-16T04:56:06;15.30;99.90
49829;DHT22;35723;51.194;5.112;2022-10-16T04:58:32;15.40;99.90
49829;DHT22;35723;51.194;5.112;2022-10-16T05:00:58;15.30;99.90
49829;DHT22;35723;51.194;5.112;2022-10-16T05:03:24;15.30;99.90
49829;DHT22;35723;51.194;5.112;2022-10-16T05:05:49;15.30;99.90
49829;DHT22;35723;51.194;5.112;2022-10-16T05:08:15;15.40;99.90
49829;DHT22;35723;51.194;5.112;2022-10-16T05:10:43;15.40;99.90
49829;DHT22;35723;51.194;5.112;2022-10-16T05:13:10;15.40;99.90
49829;DHT22;35723;51.194;5.112;2022-10-16T05:15:35;15.40;99.90
49829;DHT22;35723;51.194;5.112;2022-10-16T05:18:01;15.30;99.90
49829;DHT22;35723;51.194;5.112;2022-10-16T05:20:27;15.40;99.90
49829;DHT22;35723;51.194;5.112;2022-10-16T05:22:53;15.40;99.90
49829;DHT22;35723;51.194;5.112;2022-10-16T05:25:18;15.40;99.90
49829;DHT22;35723;51.194;5.112;2022-10-16T05:27:47;15.40;99.90
49829;DHT22;35723;51.194;5.112;2022-10-16T05:30:14;15.40;99.90
49829;DHT22;35723;51.194;5.112;2022-10-16T05:32:39;15.40;99.90
49829;DHT22;35723;51.194;5.112;2022-10-16T05:35:05;15.40;99.90
49829;DHT22;35723;51.194;5.112;2022-10-16T05:37:31;15.40;99.90
49829;DHT22;35723;51.194;5.112;2022-10-16T05:39:57;15.30;99.90
49829;DHT22;35723;51.194;5.112;2022-10-16T05:42:23;15.20;99.90
49829;DHT22;35723;51.194;5.112;2022-10-16T05:44:48;15.30;99.90
49829;DHT22;35723;51.194;5.112;2022-10-16T05:47:14;15.30;99.90
49829;DHT22;35723;51.194;5.112;2022-10-16T05:49:40;15.20;99.90
49829;DHT22;35723;51.194;5.112;2022-10-16T05:52:05;15.20;99.90
49829;DHT22;35723;51.194;5.112;2022-10-16T05:54:31;15.30;99.90
49829;DHT22;35723;51.194;5.112;2022-10-16T05:56:57;15.30;99.90
49829;DHT22;35723;51.194;5.112;2022-10-16T05:59:22;15.30;99.90
49829;DHT22;35723;51.194;5.112;2022-10-16T06:01:48;15.30;99.90
49829;DHT22;35723;51.194;5.112;2022-10-16T06:04:14;15.20;99.90
49829;DHT22;35723;51.194;5.112;2022-10-16T06:06:40;15.10;99.90
49829;DHT22;35723;51.194;5.112;2022-10-16T06:09:05;15.00;99.90
49829;DHT22;35723;51.194;5.112;2022-10-16T06:11:33;15.10;99.90
49829;DHT22;35723;51.194;5.112;2022-10-16T06:14:00;15.20;99.90
49829;DHT22;35723;51.194;5.112;2022-10-16T06:16:28;15.20;99.90
49829;DHT22;35723;51.194;5.112;2022-10-16T06:18:55;15.20;99.90
49829;DHT22;35723;51.194;5.112;2022-10-16T06:21:23;15.20;99.90
49829;DHT22;35723;51.194;5.112;2022-10-16T06:23:53;15.30;99.90
49829;DHT22;35723;51.194;5.112;2022-10-16T06:26:21;15.20;99.90
49829;DHT22;35723;51.194;5.112;2022-10-16T06:28:47;15.20;99.90
49829;DHT22;35723;51.194;5.112;2022-10-16T06:31:13;15.20;99.90
49829;DHT22;35723;51.194;5.112;2022-10-16T06:33:39;15.20;99.90
49829;DHT22;35723;51.194;5.112;2022-10-16T06:36:15;15.20;99.90
49829;DHT22;35723;51.194;5.112;2022-10-16T06:38:42;15.10;99.90
49829;DHT22;35723;51.194;5.112;2022-10-16T06:41:11;15.10;99.90
49829;DHT22;35723;51.194;5.112;2022-10-16T06:43:37;15.10;99.90
49829;DHT22;35723;51.194;5.112;2022-10-16T06:46:04;15.10;99.90
49829;DHT22;35723;51.194;5.112;2022-10-16T06:48:30;15.20;99.90
49829;DHT22;35723;51.194;5.112;2022-10-16T06:51:00;15.10;99.90
49829;DHT22;35723;51.194;5.112;2022-10-16T06:53:28;15.20;99.90
49829;DHT22;35723;51.194;5.112;2022-10-16T06:55:54;15.20;99.90
49829;DHT22;35723;51.194;5.112;2022-10-16T06:58:20;15.20;99.90
49829;DHT22;35723;51.194;5.112;2022-10-16T07:00:46;15.30;99.90
49829;DHT22;35723;51.194;5.112;2022-10-16T07:03:12;15.20;99.90
49829;DHT22;35723;51.194;5.112;2022-10-16T07:05:41;15.20;99.90
49829;DHT22;35723;51.194;5.112;2022-10-16T07:08:08;15.30;99.90
49829;DHT22;35723;51.194;5.112;2022-10-16T07:10:34;15.30;99.90
49829;DHT22;35723;51.194;5.112;2022-10-16T07:13:00;15.40;99.90
49829;DHT22;35723;51.194;5.112;2022-10-16T07:15:25;15.40;99.90
49829;DHT22;35723;51.194;5.112;2022-10-16T07:17:51;15.40;99.90
49829;DHT22;35723;51.194;5.112;2022-10-16T07:20:17;15.40;99.90
49829;DHT22;35723;51.194;5.112;2022-10-16T07:22:43;15.50;99.90
49829;DHT22;35723;51.194;5.112;2022-10-16T07:25:15;15.50;99.90
49829;DHT22;35723;51.194;5.112;2022-10-16T07:27:40;15.50;99.90
49829;DHT22;35723;51.194;5.112;2022-10-16T07:30:06;15.60;99.90
49829;DHT22;35723;51.194;5.112;2022-10-16T07:32:32;15.70;99.90
49829;DHT22;35723;51.194;5.112;2022-10-16T07:34:58;15.60;99.90
49829;DHT22;35723;51.194;5.112;2022-10-16T07:37:23;15.60;99.90
49829;DHT22;35723;51.194;5.112;2022-10-16T07:39:49;15.70;99.90
49829;DHT22;35723;51.194;5.112;2022-10-16T07:42:15;15.80;99.90
49829;DHT22;35723;51.194;5.112;2022-10-16T07:44:40;15.80;99.90
49829;DHT22;35723;51.194;5.112;2022-10-16T07:47:06;15.90;99.90
49829;DHT22;35723;51.194;5.112;2022-10-16T07:49:32;16.00;99.90
49829;DHT22;35723;51.194;5.112;2022-10-16T07:51:58;16.10;99.90
49829;DHT22;35723;51.194;5.112;2022-10-16T07:54:23;16.20;99.90
49829;DHT22;35723;51.194;5.112;2022-10-16T07:56:49;16.20;99.90
49829;DHT22;35723;51.194;5.112;2022-10-16T07:59:15;16.20;99.90
49829;DHT22;35723;51.194;5.112;2022-10-16T08:01:40;16.10;99.90
49829;DHT22;35723;51.194;5.112;2022-10-16T08:04:08;16.20;99.90
49829;DHT22;35723;51.194;5.112;2022-10-16T08:06:36;16.20;99.90
49829;DHT22;35723;51.194;5.112;2022-10-16T08:09:03;16.30;99.90
49829;DHT22;35723;51.194;5.112;2022-10-16T08:11:29;16.30;99.90
49829;DHT22;35723;51.194;5.112;2022-10-16T08:13:54;16.40;99.90
49829;DHT22;35723;51.194;5.112;2022-10-16T08:16:20;16.40;99.90
49829;DHT22;35723;51.194;5.112;2022-10-16T08:18:46;16.50;99.90
49829;DHT22;35723;51.194;5.112;2022-10-16T08:21:15;16.60;99.90
49829;DHT22;35723;51.194;5.112;2022-10-16T08:23:41;16.70;99.90
49829;DHT22;35723;51.194;5.112;2022-10-16T08:26:08;16.90;99.90
49829;DHT22;35723;51.194;5.112;2022-10-16T08:28:35;16.90;99.90
49829;DHT22;35723;51.194;5.112;2022-10-16T08:31:12;16.90;99.90
49829;DHT22;35723;51.194;5.112;2022-10-16T08:33:40;16.90;99.90
49829;DHT22;35723;51.194;5.112;2022-10-16T08:36:06;16.80;99.90
49829;DHT22;35723;51.194;5.112;2022-10-16T08:38:33;17.00;99.90
49829;DHT22;35723;51.194;5.112;2022-10-16T08:41:25;17.00;99.90
49829;DHT22;35723;51.194;5.112;2022-10-16T08:47:25;17.20;99.90
49829;DHT22;35723;51.194;5.112;2022-10-16T08:49:24;17.20;99.90
49829;DHT22;35723;51.194;5.112;2022-10-16T08:51:50;17.20;99.90
49829;DHT22;35723;51.194;5.112;2022-10-16T08:54:29;17.30;99.90
49829;DHT22;35723;51.194;5.112;2022-10-16T08:56:57;17.40;99.90
49829;DHT22;35723;51.194;5.112;2022-10-16T08:59:26;17.50;99.90
49829;DHT22;35723;51.194;5.112;2022-10-16T09:01:52;17.50;99.90
49829;DHT22;35723;51.194;5.112;2022-10-16T09:07:12;17.70;99.90
49829;DHT22;35723;51.194;5.112;2022-10-16T09:10:04;17.70;99.90
49829;DHT22;35723;51.194;5.112;2022-10-16T09:15:39;17.80;99.90
49829;DHT22;35723;51.194;5.112;2022-10-16T09:23:43;17.90;99.90
49829;DHT22;35723;51.194;5.112;2022-10-16T09:26:12;17.90;99.90
49829;DHT22;35723;51.194;5.112;2022-10-16T09:28:38;18.10;99.90
49829;DHT22;35723;51.194;5.112;2022-10-16T09:31:04;18.20;99.90
49829;DHT22;35723;51.194;5.112;2022-10-16T09:33:34;18.20;99.90
49829;DHT22;35723;51.194;5.112;2022-10-16T09:36:03;18.30;99.90
49829;DHT22;35723;51.194;5.112;2022-10-16T09:38:31;18.40;99.90
49829;DHT22;35723;51.194;5.112;2022-10-16T09:40:59;18.50;99.90
49829;DHT22;35723;51.194;5.112;2022-10-16T09:46:05;18.50;99.90
49829;DHT22;35723;51.194;5.112;2022-10-16T09:51:06;18.60;99.90
49829;DHT22;35723;51.194;5.112;2022-10-16T09:53:42;18.70;99.90
49829;DHT22;35723;51.194;5.112;2022-10-16T09:56:10;18.80;99.90
49829;DHT22;35723;51.194;5.112;2022-10-16T09:58:42;18.80;99.90
49829;DHT22;35723;51.194;5.112;2022-10-16T10:01:15;18.90;99.90
49829;DHT22;35723;51.194;5.112;2022-10-16T10:03:42;19.00;99.90
49829;DHT22;35723;51.194;5.112;2022-10-16T10:06:22;19.10;99.90
49829;DHT22;35723;51.194;5.112;2022-10-16T10:09:00;19.20;99.90
49829;DHT22;35723;51.194;5.112;2022-10-16T10:11:49;19.10;99.90
49829;DHT22;35723;51.194;5.112;2022-10-16T10:14:32;19.00;99.90
49829;DHT22;35723;51.194;5.112;2022-10-16T10:19:57;19.10;99.90
49829;DHT22;35723;51.194;5.112;2022-10-16T10:22:27;19.20;99.90
49829;DHT22;35723;51.194;5.112;2022-10-16T10:28:03;19.30;99.90
49829;DHT22;35723;51.194;5.112;2022-10-16T10:33:47;19.50;99.90
49829;DHT22;35723;51.194;5.112;2022-10-16T10:38:53;19.60;99.90
49829;DHT22;35723;51.194;5.112;2022-10-16T11:01:21;19.80;99.90
49829;DHT22;35723;51.194;5.112;2022-10-16T11:06:52;19.80;99.90
49829;DHT22;35723;51.194;5.112;2022-10-16T11:09:41;19.80;99.90
49829;DHT22;35723;51.194;5.112;2022-10-16T11:14:40;19.80;99.90
49829;DHT22;35723;51.194;5.112;2022-10-16T11:17:13;19.70;99.90
49829;DHT22;35723;51.194;5.112;2022-10-16T11:20:10;19.70;99.90
49829;DHT22;35723;51.194;5.112;2022-10-16T11:22:44;19.70;99.90
49829;DHT22;35723;51.194;5.112;2022-10-16T11:25:21;19.60;99.90
49829;DHT22;35723;51.194;5.112;2022-10-16T11:28:14;19.60;99.90
49829;DHT22;35723;51.194;5.112;2022-10-16T11:30:47;19.60;99.90
49829;DHT22;35723;51.194;5.112;2022-10-16T11:33:26;19.50;99.90
49829;DHT22;35723;51.194;5.112;2022-10-16T11:36:25;19.50;99.90
49829;DHT22;35723;51.194;5.112;2022-10-16T11:42:22;19.60;99.90
49829;DHT22;35723;51.194;5.112;2022-10-16T11:50:53;19.80;99.90
49829;DHT22;35723;51.194;5.112;2022-10-16T11:53:37;19.80;99.90
49829;DHT22;35723;51.194;5.112;2022-10-16T11:56:05;19.80;99.90
49829;DHT22;35723;51.194;5.112;2022-10-16T11:58:40;19.80;99.90
49829;DHT22;35723;51.194;5.112;2022-10-16T12:06:57;19.80;99.90
49829;DHT22;35723;51.194;5.112;2022-10-16T12:09:30;19.70;99.90
49829;DHT22;35723;51.194;5.112;2022-10-16T12:11:57;19.80;99.90
49829;DHT22;35723;51.194;5.112;2022-10-16T12:19:58;19.70;99.90
49829;DHT22;35723;51.194;5.112;2022-10-16T12:22:28;19.60;99.90
49829;DHT22;35723;51.194;5.112;2022-10-16T12:24:54;19.70;99.90
49829;DHT22;35723;51.194;5.112;2022-10-16T12:27:31;19.80;99.90
49829;DHT22;35723;51.194;5.112;2022-10-16T12:30:00;19.80;99.90
49829;DHT22;35723;51.194;5.112;2022-10-16T12:32:37;19.80;99.90
49829;DHT22;35723;51.194;5.112;2022-10-16T12:35:04;19.80;99.90
49829;DHT22;35723;51.194;5.112;2022-10-16T12:37:33;19.80;99.90
49829;DHT22;35723;51.194;5.112;2022-10-16T12:40:04;19.80;99.90
49829;DHT22;35723;51.194;5.112;2022-10-16T12:42:36;20.00;99.90
49829;DHT22;35723;51.194;5.112;2022-10-16T12:45:34;19.80;99.90
49829;DHT22;35723;51.194;5.112;2022-10-16T12:48:04;19.80;99.90
49829;DHT22;35723;51.194;5.112;2022-10-16T12:50:42;19.80;99.90
49829;DHT22;35723;51.194;5.112;2022-10-16T12:53:25;19.70;99.90
49829;DHT22;35723;51.194;5.112;2022-10-16T12:59:07;19.80;99.90
49829;DHT22;35723;51.194;5.112;2022-10-16T13:01:57;19.80;99.90
49829;DHT22;35723;51.194;5.112;2022-10-16T13:18:32;19.80;99.90
49829;DHT22;35723;51.194;5.112;2022-10-16T13:23:42;19.80;99.90
49829;DHT22;35723;51.194;5.112;2022-10-16T13:26:24;19.80;99.90
49829;DHT22;35723;51.194;5.112;2022-10-16T13:28:53;19.80;99.90
49829;DHT22;35723;51.194;5.112;2022-10-16T13:31:21;19.80;99.90
49829;DHT22;35723;51.194;5.112;2022-10-16T13:33:51;19.80;99.90
49829;DHT22;35723;51.194;5.112;2022-10-16T13:36:47;19.80;99.90
49829;DHT22;35723;51.194;5.112;2022-10-16T13:39:27;19.70;99.90
49829;DHT22;35723;51.194;5.112;2022-10-16T13:44:43;19.70;99.90
49829;DHT22;35723;51.194;5.112;2022-10-16T13:47:36;19.70;99.90
49829;DHT22;35723;51.194;5.112;2022-10-16T13:50:09;19.70;99.90
49829;DHT22;35723;51.194;5.112;2022-10-16T13:52:36;19.70;99.90
49829;DHT22;35723;51.194;5.112;2022-10-16T13:55:13;19.60;99.90
49829;DHT22;35723;51.194;5.112;2022-10-16T13:57:39;19.70;99.90
49829;DHT22;35723;51.194;5.112;2022-10-16T14:00:20;19.70;99.90
49829;DHT22;35723;51.194;5.112;2022-10-16T14:02:51;19.70;99.90
49829;DHT22;35723;51.194;5.112;2022-10-16T14:05:18;19.60;99.90
49829;DHT22;35723;51.194;5.112;2022-10-16T14:07:49;19.60;99.90
49829;DHT22;35723;51.194;5.112;2022-10-16T14:10:21;19.60;99.90
49829;DHT22;35723;51.194;5.112;2022-10-16T14:13:01;19.60;99.90
49829;DHT22;35723;51.194;5.112;2022-10-16T14:15:30;19.60;99.90
49829;DHT22;35723;51.194;5.112;2022-10-16T14:17:56;19.60;99.90
49829;DHT22;35723;51.194;5.112;2022-10-16T14:20:34;19.60;99.90
49829;DHT22;35723;51.194;5.112;2022-10-16T14:23:49;19.60;99.90
49829;DHT22;35723;51.194;5.112;2022-10-16T14:25:51;19.60;99.90
49829;DHT22;35723;51.194;5.112;2022-10-16T14:28:20;19.50;99.90
49829;DHT22;35723;51.194;5.112;2022-10-16T14:30:55;19.60;99.90
49829;DHT22;35723;51.194;5.112;2022-10-16T14:33:24;19.60;99.90
49829;DHT22;35723;51.194;5.112;2022-10-16T14:36:11;19.60;99.90
49829;DHT22;35723;51.194;5.112;2022-10-16T14:38:39;19.60;99.90
49829;DHT22;35723;51.194;5.112;2022-10-16T14:41:05;19.60;99.90
49829;DHT22;35723;51.194;5.112;2022-10-16T14:45:58;19.50;99.90
49829;DHT22;35723;51.194;5.112;2022-10-16T14:48:24;19.50;99.90
49829;DHT22;35723;51.194;5.112;2022-10-16T14:50:50;19.50;99.90
49829;DHT22;35723;51.194;5.112;2022-10-16T14:53:16;19.50;99.90
49829;DHT22;35723;51.194;5.112;2022-10-16T14:55:42;19.50;99.90
49829;DHT22;35723;51.194;5.112;2022-10-16T14:58:22;19.50;99.90
49829;DHT22;35723;51.194;5.112;2022-10-16T15:00:48;19.50;99.90
49829;DHT22;35723;51.194;5.112;2022-10-16T15:03:14;19.50;99.90
49829;DHT22;35723;51.194;5.112;2022-10-16T15:05:40;19.50;99.90
49829;DHT22;35723;51.194;5.112;2022-10-16T15:08:05;19.50;99.90
49829;DHT22;35723;51.194;5.112;2022-10-16T15:10:33;19.50;99.90
49829;DHT22;35723;51.194;5.112;2022-10-16T15:13:00;19.50;99.90
49829;DHT22;35723;51.194;5.112;2022-10-16T15:15:35;19.50;99.90
49829;DHT22;35723;51.194;5.112;2022-10-16T15:18:02;19.50;99.90
49829;DHT22;35723;51.194;5.112;2022-10-16T15:20:30;19.50;99.90
49829;DHT22;35723;51.194;5.112;2022-10-16T15:22:57;19.50;99.90
49829;DHT22;35723;51.194;5.112;2022-10-16T15:25:38;19.50;99.90
49829;DHT22;35723;51.194;5.112;2022-10-16T15:28:07;19.40;99.90
49829;DHT22;35723;51.194;5.112;2022-10-16T15:30:34;19.40;99.90
49829;DHT22;35723;51.194;5.112;2022-10-16T15:33:01;19.30;99.90
49829;DHT22;35723;51.194;5.112;2022-10-16T15:35:26;19.30;99.90
49829;DHT22;35723;51.194;5.112;2022-10-16T15:37:52;19.30;99.90
49829;DHT22;35723;51.194;5.112;2022-10-16T15:40:19;19.30;99.90
49829;DHT22;35723;51.194;5.112;2022-10-16T15:42:45;19.20;99.90
49829;DHT22;35723;51.194;5.112;2022-10-16T15:45:12;19.20;99.90
49829;DHT22;35723;51.194;5.112;2022-10-16T15:47:40;19.20;99.90
49829;DHT22;35723;51.194;5.112;2022-10-16T15:50:06;19.20;99.90
49829;DHT22;35723;51.194;5.112;2022-10-16T15:52:32;19.10;99.90
49829;DHT22;35723;51.194;5.112;2022-10-16T15:54:58;19.10;99.90
49829;DHT22;35723;51.194;5.112;2022-10-16T15:57:24;19.10;99.90
49829;DHT22;35723;51.194;5.112;2022-10-16T15:59:50;19.10;99.90
49829;DHT22;35723;51.194;5.112;2022-10-16T16:02:16;19.00;99.90
49829;DHT22;35723;51.194;5.112;2022-10-16T16:04:41;18.90;99.90
49829;DHT22;35723;51.194;5.112;2022-10-16T16:07:07;18.90;99.90
49829;DHT22;35723;51.194;5.112;2022-10-16T16:09:33;18.90;99.90
49829;DHT22;35723;51.194;5.112;2022-10-16T16:11:59;18.90;99.90
49829;DHT22;35723;51.194;5.112;2022-10-16T16:14:26;18.90;99.90
49829;DHT22;35723;51.194;5.112;2022-10-16T16:16:54;18.80;99.90
49829;DHT22;35723;51.194;5.112;2022-10-16T16:19:20;18.70;99.90
49829;DHT22;35723;51.194;5.112;2022-10-16T16:21:47;18.70;99.90
49829;DHT22;35723;51.194;5.112;2022-10-16T16:24:12;18.70;99.90
49829;DHT22;35723;51.194;5.112;2022-10-16T16:26:38;18.60;99.90
49829;DHT22;35723;51.194;5.112;2022-10-16T16:29:13;18.50;99.90
49829;DHT22;35723;51.194;5.112;2022-10-16T16:31:39;18.50;99.90
49829;DHT22;35723;51.194;5.112;2022-10-16T16:34:05;18.50;99.90
49829;DHT22;35723;51.194;5.112;2022-10-16T16:36:31;18.50;99.90
49829;DHT22;35723;51.194;5.112;2022-10-16T16:38:57;18.50;99.90
49829;DHT22;35723;51.194;5.112;2022-10-16T16:41:26;18.50;99.90
49829;DHT22;35723;51.194;5.112;2022-10-16T16:43:52;18.40;99.90
49829;DHT22;35723;51.194;5.112;2022-10-16T16:46:18;18.40;99.90
49829;DHT22;35723;51.194;5.112;2022-10-16T16:48:45;18.40;99.90
49829;DHT22;35723;51.194;5.112;2022-10-16T16:51:13;18.30;99.90
49829;DHT22;35723;51.194;5.112;2022-10-16T16:53:50;18.30;99.90
49829;DHT22;35723;51.194;5.112;2022-10-16T16:56:17;18.30;99.90
49829;DHT22;35723;51.194;5.112;2022-10-16T16:58:46;18.30;99.90
49829;DHT22;35723;51.194;5.112;2022-10-16T17:01:12;18.30;99.90
49829;DHT22;35723;51.194;5.112;2022-10-16T17:03:37;18.20;99.90
49829;DHT22;35723;51.194;5.112;2022-10-16T17:06:06;18.20;99.90
49829;DHT22;35723;51.194;5.112;2022-10-16T17:08:33;18.20;99.90
49829;DHT22;35723;51.194;5.112;2022-10-16T17:10:59;18.20;99.90
49829;DHT22;35723;51.194;5.112;2022-10-16T17:13:26;18.10;99.90
49829;DHT22;35723;51.194;5.112;2022-10-16T17:15:52;18.10;99.90
49829;DHT22;35723;51.194;5.112;2022-10-16T17:18:19;18.20;99.90
49829;DHT22;35723;51.194;5.112;2022-10-16T17:20:45;18.20;99.90
49829;DHT22;35723;51.194;5.112;2022-10-16T17:23:11;18.20;99.90
49829;DHT22;35723;51.194;5.112;2022-10-16T17:25:38;18.20;99.90
49829;DHT22;35723;51.194;5.112;2022-10-16T17:28:05;18.20;99.90
49829;DHT22;35723;51.194;5.112;2022-10-16T17:30:31;18.20;99.90
49829;DHT22;35723;51.194;5.112;2022-10-16T17:32:58;18.10;99.90
49829;DHT22;35723;51.194;5.112;2022-10-16T17:35:25;18.10;99.90